sensor_id;sensor_type;location;lat;lon;timestamp;temperature;humidity
36442;DHT22;73131;50.820;16.274;2023-10-19T00:01:15;7.50;99.90
36442;DHT22;73131;50.820;16.274;2023-10-19T00:03:49;7.50;99.90
36442;DHT22;73131;50.820;16.274;2023-10-19T00:06:19;7.50;99.90
36442;DHT22;73131;50.820;16.274;2023-10-19T00:08:47;7.50;99.90
36442;DHT22;73131;50.820;16.274;2023-10-19T00:11:15;7.60;99.90
36442;DHT22;73131;50.820;16.274;2023-10-19T00:13:54;7.50;99.90
36442;DHT22;73131;50.820;16.274;2023-10-19T00:16:23;7.50;99.90
36442;DHT22;73131;50.820;16.274;2023-10-19T00:18:51;7.40;99.90
36442;DHT22;73131;50.820;16.274;2023-10-19T00:21:18;7.40;99.90
36442;DHT22;73131;50.820;16.274;2023-10-19T00:23:59;7.30;99.90
36442;DHT22;73131;50.820;16.274;2023-10-19T00:26:32;7.30;99.90
36442;DHT22;73131;50.820;16.274;2023-10-19T00:28:58;7.30;99.90
36442;DHT22;73131;50.820;16.274;2023-10-19T00:31:29;7.30;99.90
36442;DHT22;73131;50.820;16.274;2023-10-19T00:33:59;7.30;99.90
36442;DHT22;73131;50.820;16.274;2023-10-19T00:36:26;7.20;99.90
36442;DHT22;73131;50.820;16.274;2023-10-19T00:38:56;7.20;99.90
36442;DHT22;73131;50.820;16.274;2023-10-19T00:41:24;7.20;99.90
36442;DHT22;73131;50.820;16.274;2023-10-19T00:43:58;7.20;99.90
36442;DHT22;73131;50.820;16.274;2023-10-19T00:46:48;7.20;99.90
36442;DHT22;73131;50.820;16.274;2023-10-19T00:49:23;7.20;99.90
36442;DHT22;73131;50.820;16.274;2023-10-19T00:51:52;7.20;99.90
36442;DHT22;73131;50.820;16.274;2023-10-19T00:54:34;7.20;99.90
36442;DHT22;73131;50.820;16.274;2023-10-19T00:57:04;7.30;99.90
36442;DHT22;73131;50.820;16.274;2023-10-19T00:59:39;7.30;99.90
36442;DHT22;73131;50.820;16.274;2023-10-19T01:02:19;7.30;99.90
36442;DHT22;73131;50.820;16.274;2023-10-19T01:04:52;7.40;99.90
36442;DHT22;73131;50.820;16.274;2023-10-19T01:07:30;7.40;99.90
36442;DHT22;73131;50.820;16.274;2023-10-19T01:10:02;7.40;99.90
36442;DHT22;73131;50.820;16.274;2023-10-19T01:12:34;7.40;99.90
36442;DHT22;73131;50.820;16.274;2023-10-19T01:15:17;7.40;99.90
36442;DHT22;73131;50.820;16.274;2023-10-19T01:17:44;7.40;99.90
36442;DHT22;73131;50.820;16.274;2023-10-19T01:20:14;7.40;99.90
36442;DHT22;73131;50.820;16.274;2023-10-19T01:22:58;7.30;99.90
36442;DHT22;73131;50.820;16.274;2023-10-19T01:25:50;7.30;99.90
36442;DHT22;73131;50.820;16.274;2023-10-19T01:28:23;7.10;99.90
36442;DHT22;73131;50.820;16.274;2023-10-19T01:31:12;7.10;99.90
36442;DHT22;73131;50.820;16.274;2023-10-19T01:33:58;7.00;99.90
36442;DHT22;73131;50.820;16.274;2023-10-19T01:36:27;6.90;99.90
36442;DHT22;73131;50.820;16.274;2023-10-19T01:38:58;6.80;99.90
36442;DHT22;73131;50.820;16.274;2023-10-19T01:41:31;6.80;99.90
36442;DHT22;73131;50.820;16.274;2023-10-19T01:43:59;6.80;99.90
36442;DHT22;73131;50.820;16.274;2023-10-19T01:46:30;6.70;99.90
36442;DHT22;73131;50.820;16.274;2023-10-19T01:49:00;6.60;99.90
36442;DHT22;73131;50.820;16.274;2023-10-19T01:51:33;6.60;99.90
36442;DHT22;73131;50.820;16.274;2023-10-19T01:54:05;6.70;99.90
36442;DHT22;73131;50.820;16.274;2023-10-19T01:56:41;6.70;99.90
36442;DHT22;73131;50.820;16.274;2023-10-19T01:59:09;6.70;99.90
36442;DHT22;73131;50.820;16.274;2023-10-19T02:01:35;6.70;99.90
36442;DHT22;73131;50.820;16.274;2023-10-19T02:04:06;6.70;99.90
36442;DHT22;73131;50.820;16.274;2023-10-19T02:06:34;6.80;99.90
36442;DHT22;73131;50.820;16.274;2023-10-19T02:09:09;6.80;99.90
36442;DHT22;73131;50.820;16.274;2023-10-19T02:11:42;6.90;99.90
36442;DHT22;73131;50.820;16.274;2023-10-19T02:14:14;6.90;99.90
36442;DHT22;73131;50.820;16.274;2023-10-19T02:16:44;6.90;99.90
36442;DHT22;73131;50.820;16.274;2023-10-19T02:19:15;7.00;99.90
36442;DHT22;73131;50.820;16.274;2023-10-19T02:21:41;7.00;99.90
36442;DHT22;73131;50.820;16.274;2023-10-19T02:24:10;7.00;99.90
36442;DHT22;73131;50.820;16.274;2023-10-19T02:26:46;7.10;99.90
36442;DHT22;73131;50.820;16.274;2023-10-19T02:29:17;7.10;99.90
36442;DHT22;73131;50.820;16.274;2023-10-19T02:31:44;7.10;99.90
36442;DHT22;73131;50.820;16.274;2023-10-19T02:34:14;7.10;99.90
36442;DHT22;73131;50.820;16.274;2023-10-19T02:36:48;7.10;99.90
36442;DHT22;73131;50.820;16.274;2023-10-19T02:39:17;7.10;99.90
36442;DHT22;73131;50.820;16.274;2023-10-19T02:41:47;7.10;99.90
36442;DHT22;73131;50.820;16.274;2023-10-19T02:44:16;7.10;99.90
36442;DHT22;73131;50.820;16.274;2023-10-19T02:46:45;7.10;99.90
36442;DHT22;73131;50.820;16.274;2023-10-19T02:49:13;7.00;99.90
36442;DHT22;73131;50.820;16.274;2023-10-19T02:51:45;7.00;99.90
36442;DHT22;73131;50.820;16.274;2023-10-19T02:54:18;7.00;99.90
36442;DHT22;73131;50.820;16.274;2023-10-19T02:56:54;6.90;99.90
36442;DHT22;73131;50.820;16.274;2023-10-19T02:59:28;6.90;99.90
36442;DHT22;73131;50.820;16.274;2023-10-19T03:02:01;6.90;99.90
36442;DHT22;73131;50.820;16.274;2023-10-19T03:04:33;6.90;99.90
36442;DHT22;73131;50.820;16.274;2023-10-19T03:07:05;6.90;99.90
36442;DHT22;73131;50.820;16.274;2023-10-19T03:09:32;6.90;99.90
36442;DHT22;73131;50.820;16.274;2023-10-19T03:12:02;6.90;99.90
36442;DHT22;73131;50.820;16.274;2023-10-19T03:14:35;6.90;99.90
36442;DHT22;73131;50.820;16.274;2023-10-19T03:17:01;6.90;99.90
36442;DHT22;73131;50.820;16.274;2023-10-19T03:19:29;6.90;99.90
36442;DHT22;73131;50.820;16.274;2023-10-19T03:21:55;6.90;99.90
36442;DHT22;73131;50.820;16.274;2023-10-19T03:24:24;7.00;99.90
36442;DHT22;73131;50.820;16.274;2023-10-19T03:27:03;6.90;99.90
36442;DHT22;73131;50.820;16.274;2023-10-19T03:29:39;7.00;99.90
36442;DHT22;73131;50.820;16.274;2023-10-19T03:32:06;6.90;99.90
36442;DHT22;73131;50.820;16.274;2023-10-19T03:34:35;6.90;99.90
36442;DHT22;73131;50.820;16.274;2023-10-19T03:37:01;7.00;99.90
36442;DHT22;73131;50.820;16.274;2023-10-19T03:39:39;6.90;99.90
36442;DHT22;73131;50.820;16.274;2023-10-19T03:42:08;6.90;99.90
36442;DHT22;73131;50.820;16.274;2023-10-19T03:44:35;7.00;99.90
36442;DHT22;73131;50.820;16.274;2023-10-19T03:47:23;7.00;99.90
36442;DHT22;73131;50.820;16.274;2023-10-19T03:50:02;7.00;99.90
36442;DHT22;73131;50.820;16.274;2023-10-19T03:52:48;7.10;99.90
36442;DHT22;73131;50.820;16.274;2023-10-19T03:55:17;7.20;99.90
36442;DHT22;73131;50.820;16.274;2023-10-19T03:57:56;7.30;99.90
36442;DHT22;73131;50.820;16.274;2023-10-19T04:00:24;7.40;99.90
36442;DHT22;73131;50.820;16.274;2023-10-19T04:02:54;7.50;99.90
36442;DHT22;73131;50.820;16.274;2023-10-19T04:05:24;7.60;99.90
36442;DHT22;73131;50.820;16.274;2023-10-19T04:07:54;7.70;99.90
36442;DHT22;73131;50.820;16.274;2023-10-19T04:10:24;7.80;99.90
36442;DHT22;73131;50.820;16.274;2023-10-19T04:12:56;7.90;99.90
36442;DHT22;73131;50.820;16.274;2023-10-19T04:15:25;8.00;99.90
36442;DHT22;73131;50.820;16.274;2023-10-19T04:18:02;8.10;99.90
36442;DHT22;73131;50.820;16.274;2023-10-19T04:20:34;8.10;99.90
36442;DHT22;73131;50.820;16.274;2023-10-19T04:23:08;8.20;99.90
36442;DHT22;73131;50.820;16.274;2023-10-19T04:25:42;8.20;99.90
36442;DHT22;73131;50.820;16.274;2023-10-19T04:28:11;8.30;99.90
36442;DHT22;73131;50.820;16.274;2023-10-19T04:30:41;8.30;99.90
36442;DHT22;73131;50.820;16.274;2023-10-19T04:33:09;8.30;99.90
36442;DHT22;73131;50.820;16.274;2023-10-19T04:35:36;8.40;99.90
36442;DHT22;73131;50.820;16.274;2023-10-19T04:38:04;8.40;99.90
36442;DHT22;73131;50.820;16.274;2023-10-19T04:40:36;8.40;99.90
36442;DHT22;73131;50.820;16.274;2023-10-19T04:43:02;8.40;99.90
36442;DHT22;73131;50.820;16.274;2023-10-19T04:45:36;8.40;99.90
36442;DHT22;73131;50.820;16.274;2023-10-19T04:48:07;8.50;99.90
36442;DHT22;73131;50.820;16.274;2023-10-19T04:50:36;8.60;99.90
36442;DHT22;73131;50.820;16.274;2023-10-19T04:53:04;8.60;99.90
36442;DHT22;73131;50.820;16.274;2023-10-19T04:55:40;8.60;99.90
36442;DHT22;73131;50.820;16.274;2023-10-19T04:58:10;8.60;99.90
36442;DHT22;73131;50.820;16.274;2023-10-19T05:00:36;8.60;99.90
36442;DHT22;73131;50.820;16.274;2023-10-19T05:03:05;8.60;99.90
36442;DHT22;73131;50.820;16.274;2023-10-19T05:05:32;8.60;99.90
36442;DHT22;73131;50.820;16.274;2023-10-19T05:07:58;8.60;99.90
36442;DHT22;73131;50.820;16.274;2023-10-19T05:10:26;8.70;99.90
36442;DHT22;73131;50.820;16.274;2023-10-19T05:12:52;8.70;99.90
36442;DHT22;73131;50.820;16.274;2023-10-19T05:15:23;8.60;99.90
36442;DHT22;73131;50.820;16.274;2023-10-19T05:17:51;8.70;99.90
36442;DHT22;73131;50.820;16.274;2023-10-19T05:20:17;8.70;99.90
36442;DHT22;73131;50.820;16.274;2023-10-19T05:22:47;8.60;99.90
36442;DHT22;73131;50.820;16.274;2023-10-19T05:25:18;8.70;99.90
36442;DHT22;73131;50.820;16.274;2023-10-19T05:27:44;8.70;99.90
36442;DHT22;73131;50.820;16.274;2023-10-19T05:30:14;8.70;99.90
36442;DHT22;73131;50.820;16.274;2023-10-19T05:32:45;8.70;99.90
36442;DHT22;73131;50.820;16.274;2023-10-19T05:35:17;8.70;99.90
36442;DHT22;73131;50.820;16.274;2023-10-19T05:37:50;8.70;99.90
36442;DHT22;73131;50.820;16.274;2023-10-19T05:40:22;8.70;99.90
36442;DHT22;73131;50.820;16.274;2023-10-19T05:42:49;8.70;99.90
36442;DHT22;73131;50.820;16.274;2023-10-19T05:45:15;8.70;99.90
36442;DHT22;73131;50.820;16.274;2023-10-19T05:47:49;8.70;99.90
36442;DHT22;73131;50.820;16.274;2023-10-19T05:50:20;8.70;99.90
36442;DHT22;73131;50.820;16.274;2023-10-19T05:52:46;8.70;99.90
36442;DHT22;73131;50.820;16.274;2023-10-19T05:55:14;8.80;99.90
36442;DHT22;73131;50.820;16.274;2023-10-19T05:57:41;8.80;99.90
36442;DHT22;73131;50.820;16.274;2023-10-19T06:00:11;8.80;99.90
36442;DHT22;73131;50.820;16.274;2023-10-19T06:02:48;8.80;99.90
36442;DHT22;73131;50.820;16.274;2023-10-19T06:05:20;8.80;99.90
36442;DHT22;73131;50.820;16.274;2023-10-19T06:07:47;8.80;99.90
36442;DHT22;73131;50.820;16.274;2023-10-19T06:10:23;8.70;99.90
36442;DHT22;73131;50.820;16.274;2023-10-19T06:12:50;8.60;99.90
36442;DHT22;73131;50.820;16.274;2023-10-19T06:15:19;8.60;99.90
36442;DHT22;73131;50.820;16.274;2023-10-19T06:17:49;8.60;99.90
36442;DHT22;73131;50.820;16.274;2023-10-19T06:20:16;8.50;99.90
36442;DHT22;73131;50.820;16.274;2023-10-19T06:22:57;8.40;99.90
36442;DHT22;73131;50.820;16.274;2023-10-19T06:25:31;8.30;99.90
36442;DHT22;73131;50.820;16.274;2023-10-19T06:28:05;8.30;99.90
36442;DHT22;73131;50.820;16.274;2023-10-19T06:30:34;8.30;99.90
36442;DHT22;73131;50.820;16.274;2023-10-19T06:33:09;8.20;99.90
36442;DHT22;73131;50.820;16.274;2023-10-19T06:35:40;8.20;99.90
36442;DHT22;73131;50.820;16.274;2023-10-19T06:38:08;8.20;99.90
36442;DHT22;73131;50.820;16.274;2023-10-19T06:40:35;8.30;99.90
36442;DHT22;73131;50.820;16.274;2023-10-19T06:43:04;8.30;99.90
36442;DHT22;73131;50.820;16.274;2023-10-19T06:45:35;8.30;99.90
36442;DHT22;73131;50.820;16.274;2023-10-19T06:48:04;8.40;99.90
36442;DHT22;73131;50.820;16.274;2023-10-19T06:50:33;8.40;99.90
36442;DHT22;73131;50.820;16.274;2023-10-19T06:52:59;8.40;99.90
36442;DHT22;73131;50.820;16.274;2023-10-19T06:55:27;8.40;99.90
36442;DHT22;73131;50.820;16.274;2023-10-19T06:57:56;8.40;99.90
36442;DHT22;73131;50.820;16.274;2023-10-19T07:00:23;8.50;99.90
36442;DHT22;73131;50.820;16.274;2023-10-19T07:02:54;8.60;99.90
36442;DHT22;73131;50.820;16.274;2023-10-19T07:05:21;8.60;99.90
36442;DHT22;73131;50.820;16.274;2023-10-19T07:07:49;8.60;99.90
36442;DHT22;73131;50.820;16.274;2023-10-19T07:10:20;8.70;99.90
36442;DHT22;73131;50.820;16.274;2023-10-19T07:12:48;8.70;99.90
36442;DHT22;73131;50.820;16.274;2023-10-19T07:15:16;8.70;99.90
36442;DHT22;73131;50.820;16.274;2023-10-19T07:17:46;8.80;99.90
36442;DHT22;73131;50.820;16.274;2023-10-19T07:20:17;8.80;99.90
36442;DHT22;73131;50.820;16.274;2023-10-19T07:23:06;8.80;99.90
36442;DHT22;73131;50.820;16.274;2023-10-19T07:25:56;8.90;99.90
36442;DHT22;73131;50.820;16.274;2023-10-19T07:28:27;8.90;99.90
36442;DHT22;73131;50.820;16.274;2023-10-19T07:30:55;9.00;99.90
36442;DHT22;73131;50.820;16.274;2023-10-19T07:33:31;9.10;99.90
36442;DHT22;73131;50.820;16.274;2023-10-19T07:35:57;9.10;99.90
36442;DHT22;73131;50.820;16.274;2023-10-19T07:38:30;9.20;99.90
36442;DHT22;73131;50.820;16.274;2023-10-19T07:40:59;9.20;99.90
36442;DHT22;73131;50.820;16.274;2023-10-19T07:43:26;9.20;99.90
36442;DHT22;73131;50.820;16.274;2023-10-19T07:45:53;9.10;99.90
36442;DHT22;73131;50.820;16.274;2023-10-19T07:48:19;9.10;99.90
36442;DHT22;73131;50.820;16.274;2023-10-19T07:50:45;9.10;99.90
36442;DHT22;73131;50.820;16.274;2023-10-19T07:53:11;9.00;99.90
36442;DHT22;73131;50.820;16.274;2023-10-19T07:55:39;9.00;99.90
36442;DHT22;73131;50.820;16.274;2023-10-19T07:58:08;8.90;99.90
36442;DHT22;73131;50.820;16.274;2023-10-19T08:00:38;8.80;99.90
36442;DHT22;73131;50.820;16.274;2023-10-19T08:03:08;8.80;99.90
36442;DHT22;73131;50.820;16.274;2023-10-19T08:05:35;8.80;99.90
36442;DHT22;73131;50.820;16.274;2023-10-19T08:08:04;8.70;99.90
36442;DHT22;73131;50.820;16.274;2023-10-19T08:10:31;8.80;99.90
36442;DHT22;73131;50.820;16.274;2023-10-19T08:13:00;8.80;99.90
36442;DHT22;73131;50.820;16.274;2023-10-19T08:15:27;8.80;99.90
36442;DHT22;73131;50.820;16.274;2023-10-19T08:17:55;8.90;99.90
36442;DHT22;73131;50.820;16.274;2023-10-19T08:20:22;8.80;99.90
36442;DHT22;73131;50.820;16.274;2023-10-19T08:23:04;8.70;99.90
36442;DHT22;73131;50.820;16.274;2023-10-19T08:25:34;8.70;99.90
36442;DHT22;73131;50.820;16.274;2023-10-19T08:28:00;8.70;99.90
36442;DHT22;73131;50.820;16.274;2023-10-19T08:30:27;8.70;99.90
36442;DHT22;73131;50.820;16.274;2023-10-19T08:32:54;8.70;99.90
36442;DHT22;73131;50.820;16.274;2023-10-19T08:35:24;8.70;99.90
36442;DHT22;73131;50.820;16.274;2023-10-19T08:37:51;8.60;99.90
36442;DHT22;73131;50.820;16.274;2023-10-19T08:40:17;8.60;99.90
36442;DHT22;73131;50.820;16.274;2023-10-19T08:42:44;8.60;99.90
36442;DHT22;73131;50.820;16.274;2023-10-19T08:45:14;8.70;99.90
36442;DHT22;73131;50.820;16.274;2023-10-19T08:48:01;8.70;99.90
36442;DHT22;73131;50.820;16.274;2023-10-19T08:50:31;8.70;99.90
36442;DHT22;73131;50.820;16.274;2023-10-19T08:53:04;8.80;99.90
36442;DHT22;73131;50.820;16.274;2023-10-19T08:55:31;8.80;99.90
36442;DHT22;73131;50.820;16.274;2023-10-19T08:57:57;8.80;99.90
36442;DHT22;73131;50.820;16.274;2023-10-19T09:00:26;8.80;99.90
36442;DHT22;73131;50.820;16.274;2023-10-19T09:02:55;8.80;99.90
36442;DHT22;73131;50.820;16.274;2023-10-19T09:05:25;8.90;99.90
36442;DHT22;73131;50.820;16.274;2023-10-19T09:07:55;8.90;99.90
36442;DHT22;73131;50.820;16.274;2023-10-19T09:10:25;8.90;99.90
36442;DHT22;73131;50.820;16.274;2023-10-19T09:15:31;9.00;99.90
36442;DHT22;73131;50.820;16.274;2023-10-19T09:18:16;9.00;99.90
36442;DHT22;73131;50.820;16.274;2023-10-19T09:20:44;9.10;99.90
36442;DHT22;73131;50.820;16.274;2023-10-19T09:23:23;9.20;99.90
36442;DHT22;73131;50.820;16.274;2023-10-19T09:25:53;9.30;99.90
36442;DHT22;73131;50.820;16.274;2023-10-19T09:28:20;9.40;99.90
36442;DHT22;73131;50.820;16.274;2023-10-19T09:30:51;9.50;99.90
36442;DHT22;73131;50.820;16.274;2023-10-19T09:33:17;9.70;99.90
36442;DHT22;73131;50.820;16.274;2023-10-19T09:35:48;9.90;99.90
36442;DHT22;73131;50.820;16.274;2023-10-19T09:38:16;10.10;99.90
36442;DHT22;73131;50.820;16.274;2023-10-19T09:40:50;10.30;99.90
36442;DHT22;73131;50.820;16.274;2023-10-19T09:45:53;10.60;99.90
36442;DHT22;73131;50.820;16.274;2023-10-19T09:48:24;10.60;99.90
36442;DHT22;73131;50.820;16.274;2023-10-19T09:50:53;10.60;99.90
36442;DHT22;73131;50.820;16.274;2023-10-19T09:53:29;10.50;99.90
36442;DHT22;73131;50.820;16.274;2023-10-19T09:56:00;10.50;99.90
36442;DHT22;73131;50.820;16.274;2023-10-19T09:58:51;10.50;99.90
36442;DHT22;73131;50.820;16.274;2023-10-19T10:01:21;10.40;99.90
36442;DHT22;73131;50.820;16.274;2023-10-19T10:03:50;10.50;99.90
36442;DHT22;73131;50.820;16.274;2023-10-19T10:06:30;10.50;99.90
36442;DHT22;73131;50.820;16.274;2023-10-19T10:09:18;10.60;99.90
36442;DHT22;73131;50.820;16.274;2023-10-19T10:11:57;10.70;99.90
36442;DHT22;73131;50.820;16.274;2023-10-19T10:15:03;10.60;99.90
36442;DHT22;73131;50.820;16.274;2023-10-19T10:17:37;10.70;99.90
36442;DHT22;73131;50.820;16.274;2023-10-19T10:25:47;10.60;99.90
36442;DHT22;73131;50.820;16.274;2023-10-19T10:28:29;10.70;99.90
36442;DHT22;73131;50.820;16.274;2023-10-19T10:31:29;10.70;99.90
36442;DHT22;73131;50.820;16.274;2023-10-19T10:34:02;10.80;99.90
36442;DHT22;73131;50.820;16.274;2023-10-19T10:36:57;10.70;99.90
36442;DHT22;73131;50.820;16.274;2023-10-19T10:39:29;10.80;99.90
36442;DHT22;73131;50.820;16.274;2023-10-19T10:42:01;10.90;99.90
36442;DHT22;73131;50.820;16.274;2023-10-19T10:44:46;10.90;99.90
36442;DHT22;73131;50.820;16.274;2023-10-19T10:47:16;10.90;99.90
36442;DHT22;73131;50.820;16.274;2023-10-19T10:49:53;10.90;99.90
36442;DHT22;73131;50.820;16.274;2023-10-19T10:52:35;11.00;99.90
36442;DHT22;73131;50.820;16.274;2023-10-19T10:55:10;11.10;99.90
36442;DHT22;73131;50.820;16.274;2023-10-19T10:57:51;11.20;99.90
36442;DHT22;73131;50.820;16.274;2023-10-19T11:00:17;11.30;99.90
36442;DHT22;73131;50.820;16.274;2023-10-19T11:03:06;11.30;99.90
36442;DHT22;73131;50.820;16.274;2023-10-19T11:05:41;11.20;99.90
36442;DHT22;73131;50.820;16.274;2023-10-19T11:08:10;11.30;99.90
36442;DHT22;73131;50.820;16.274;2023-10-19T11:10:46;11.40;99.90
36442;DHT22;73131;50.820;16.274;2023-10-19T11:13:23;11.40;99.90
36442;DHT22;73131;50.820;16.274;2023-10-19T11:15:53;11.40;99.90
36442;DHT22;73131;50.820;16.274;2023-10-19T11:20:55;11.40;99.90
36442;DHT22;73131;50.820;16.274;2023-10-19T11:23:48;11.40;99.90
36442;DHT22;73131;50.820;16.274;2023-10-19T11:26:24;11.40;99.90
36442;DHT22;73131;50.820;16.274;2023-10-19T11:29:03;11.40;99.90
36442;DHT22;73131;50.820;16.274;2023-10-19T11:31:35;11.40;99.90
36442;DHT22;73131;50.820;16.274;2023-10-19T11:34:07;11.30;99.90
36442;DHT22;73131;50.820;16.274;2023-10-19T11:36:34;11.30;99.90
36442;DHT22;73131;50.820;16.274;2023-10-19T11:39:02;11.20;99.90
36442;DHT22;73131;50.820;16.274;2023-10-19T11:41:32;11.20;99.90
36442;DHT22;73131;50.820;16.274;2023-10-19T11:44:01;11.20;99.90
36442;DHT22;73131;50.820;16.274;2023-10-19T11:46:27;11.10;99.90
36442;DHT22;73131;50.820;16.274;2023-10-19T11:48:55;11.00;99.90
36442;DHT22;73131;50.820;16.274;2023-10-19T11:51:21;11.00;99.90
36442;DHT22;73131;50.820;16.274;2023-10-19T11:53:52;11.00;99.90
36442;DHT22;73131;50.820;16.274;2023-10-19T11:56:18;11.00;99.90
36442;DHT22;73131;50.820;16.274;2023-10-19T11:58:48;11.10;99.90
36442;DHT22;73131;50.820;16.274;2023-10-19T12:01:15;11.20;99.90
36442;DHT22;73131;50.820;16.274;2023-10-19T12:03:42;11.20;99.90
36442;DHT22;73131;50.820;16.274;2023-10-19T12:06:11;11.30;99.90
36442;DHT22;73131;50.820;16.274;2023-10-19T12:08:39;11.20;99.90
36442;DHT22;73131;50.820;16.274;2023-10-19T12:11:15;11.20;99.90
36442;DHT22;73131;50.820;16.274;2023-10-19T12:13:43;11.30;99.90
36442;DHT22;73131;50.820;16.274;2023-10-19T12:16:10;11.30;99.90
36442;DHT22;73131;50.820;16.274;2023-10-19T12:18:44;11.30;99.90
36442;DHT22;73131;50.820;16.274;2023-10-19T12:21:16;11.30;99.90
36442;DHT22;73131;50.820;16.274;2023-10-19T12:23:44;11.30;99.90
36442;DHT22;73131;50.820;16.274;2023-10-19T12:26:10;11.30;99.90
36442;DHT22;73131;50.820;16.274;2023-10-19T12:28:37;11.30;99.90
36442;DHT22;73131;50.820;16.274;2023-10-19T12:31:04;11.30;99.90
36442;DHT22;73131;50.820;16.274;2023-10-19T12:33:40;11.20;99.90
36442;DHT22;73131;50.820;16.274;2023-10-19T12:36:07;11.10;99.90
36442;DHT22;73131;50.820;16.274;2023-10-19T12:38:54;11.10;99.90
36442;DHT22;73131;50.820;16.274;2023-10-19T12:41:28;11.00;99.90
36442;DHT22;73131;50.820;16.274;2023-10-19T12:43:55;10.90;99.90
36442;DHT22;73131;50.820;16.274;2023-10-19T12:46:29;10.80;99.90
36442;DHT22;73131;50.820;16.274;2023-10-19T12:48:56;10.70;99.90
36442;DHT22;73131;50.820;16.274;2023-10-19T12:51:25;10.60;99.90
36442;DHT22;73131;50.820;16.274;2023-10-19T12:53:54;10.60;99.90
36442;DHT22;73131;50.820;16.274;2023-10-19T12:56:21;10.60;99.90
36442;DHT22;73131;50.820;16.274;2023-10-19T12:58:52;10.60;99.90
36442;DHT22;73131;50.820;16.274;2023-10-19T13:01:18;10.90;99.90
36442;DHT22;73131;50.820;16.274;2023-10-19T13:03:48;11.10;99.90
36442;DHT22;73131;50.820;16.274;2023-10-19T13:06:17;11.30;99.90
36442;DHT22;73131;50.820;16.274;2023-10-19T13:08:47;11.40;99.90
36442;DHT22;73131;50.820;16.274;2023-10-19T13:11:14;11.50;99.90
36442;DHT22;73131;50.820;16.274;2023-10-19T13:13:40;11.50;99.90
36442;DHT22;73131;50.820;16.274;2023-10-19T13:16:06;11.70;99.90
36442;DHT22;73131;50.820;16.274;2023-10-19T13:18:35;12.00;99.90
36442;DHT22;73131;50.820;16.274;2023-10-19T13:21:02;12.30;99.90
36442;DHT22;73131;50.820;16.274;2023-10-19T13:23:34;12.50;99.90
36442;DHT22;73131;50.820;16.274;2023-10-19T13:26:00;12.70;99.90
36442;DHT22;73131;50.820;16.274;2023-10-19T13:28:34;12.70;99.90
36442;DHT22;73131;50.820;16.274;2023-10-19T13:31:05;12.80;99.90
36442;DHT22;73131;50.820;16.274;2023-10-19T13:33:35;12.90;99.90
36442;DHT22;73131;50.820;16.274;2023-10-19T13:36:22;13.00;99.90
36442;DHT22;73131;50.820;16.274;2023-10-19T13:38:49;12.90;99.90
36442;DHT22;73131;50.820;16.274;2023-10-19T13:41:15;12.80;99.90
36442;DHT22;73131;50.820;16.274;2023-10-19T13:43:45;12.60;99.90
36442;DHT22;73131;50.820;16.274;2023-10-19T13:46:13;12.40;99.90
36442;DHT22;73131;50.820;16.274;2023-10-19T13:48:43;12.30;99.90
36442;DHT22;73131;50.820;16.274;2023-10-19T13:51:10;12.10;99.90
36442;DHT22;73131;50.820;16.274;2023-10-19T13:53:42;12.10;99.90
36442;DHT22;73131;50.820;16.274;2023-10-19T13:56:11;11.90;99.90
36442;DHT22;73131;50.820;16.274;2023-10-19T13:58:38;11.80;99.90
36442;DHT22;73131;50.820;16.274;2023-10-19T14:01:32;11.80;99.90
36442;DHT22;73131;50.820;16.274;2023-10-19T14:04:05;11.70;99.90
36442;DHT22;73131;50.820;16.274;2023-10-19T14:06:34;11.70;99.90
36442;DHT22;73131;50.820;16.274;2023-10-19T14:09:00;11.70;99.90
36442;DHT22;73131;50.820;16.274;2023-10-19T14:11:31;11.70;99.90
36442;DHT22;73131;50.820;16.274;2023-10-19T14:13:57;11.60;99.90
36442;DHT22;73131;50.820;16.274;2023-10-19T14:16:25;11.50;99.90
36442;DHT22;73131;50.820;16.274;2023-10-19T14:18:54;11.60;99.90
36442;DHT22;73131;50.820;16.274;2023-10-19T14:21:22;11.50;99.90
36442;DHT22;73131;50.820;16.274;2023-10-19T14:23:53;11.50;99.90
36442;DHT22;73131;50.820;16.274;2023-10-19T14:26:22;11.50;99.90
36442;DHT22;73131;50.820;16.274;2023-10-19T14:28:49;11.40;99.90
36442;DHT22;73131;50.820;16.274;2023-10-19T14:31:15;11.30;99.90
36442;DHT22;73131;50.820;16.274;2023-10-19T14:33:42;11.30;99.90
36442;DHT22;73131;50.820;16.274;2023-10-19T14:36:11;11.20;99.90
36442;DHT22;73131;50.820;16.274;2023-10-19T14:38:40;11.10;99.90
36442;DHT22;73131;50.820;16.274;2023-10-19T14:41:06;11.20;99.90
36442;DHT22;73131;50.820;16.274;2023-10-19T14:43:36;11.20;99.90
36442;DHT22;73131;50.820;16.274;2023-10-19T14:46:05;11.20;99.90
36442;DHT22;73131;50.820;16.274;2023-10-19T14:48:33;11.20;99.90
36442;DHT22;73131;50.820;16.274;2023-10-19T14:51:01;11.30;99.90
36442;DHT22;73131;50.820;16.274;2023-10-19T14:53:28;11.30;99.90
36442;DHT22;73131;50.820;16.274;2023-10-19T14:55:57;11.30;99.90
36442;DHT22;73131;50.820;16.274;2023-10-19T14:58:28;11.30;99.90
36442;DHT22;73131;50.820;16.274;2023-10-19T15:00:55;11.10;99.90
36442;DHT22;73131;50.820;16.274;2023-10-19T15:03:21;11.00;99.90
36442;DHT22;73131;50.820;16.274;2023-10-19T15:05:50;11.00;99.90
36442;DHT22;73131;50.820;16.274;2023-10-19T15:08:34;11.00;99.90
36442;DHT22;73131;50.820;16.274;2023-10-19T15:11:03;10.90;99.90
36442;DHT22;73131;50.820;16.274;2023-10-19T15:13:33;10.90;99.90
36442;DHT22;73131;50.820;16.274;2023-10-19T15:16:07;10.80;99.90
36442;DHT22;73131;50.820;16.274;2023-10-19T15:18:36;10.80;99.90
36442;DHT22;73131;50.820;16.274;2023-10-19T15:21:08;10.70;99.90
36442;DHT22;73131;50.820;16.274;2023-10-19T15:23:37;10.60;99.90
36442;DHT22;73131;50.820;16.274;2023-10-19T15:26:03;10.60;99.90
36442;DHT22;73131;50.820;16.274;2023-10-19T15:28:31;10.60;99.90
36442;DHT22;73131;50.820;16.274;2023-10-19T15:31:14;10.60;99.90
36442;DHT22;73131;50.820;16.274;2023-10-19T15:33:40;10.50;99.90
36442;DHT22;73131;50.820;16.274;2023-10-19T15:36:07;10.50;99.90
36442;DHT22;73131;50.820;16.274;2023-10-19T15:38:37;10.50;99.90
36442;DHT22;73131;50.820;16.274;2023-10-19T15:41:03;10.50;99.90
36442;DHT22;73131;50.820;16.274;2023-10-19T15:43:29;10.50;99.90
36442;DHT22;73131;50.820;16.274;2023-10-19T15:45:59;10.60;99.90
36442;DHT22;73131;50.820;16.274;2023-10-19T15:48:31;10.50;99.90
36442;DHT22;73131;50.820;16.274;2023-10-19T15:51:00;10.50;99.90
36442;DHT22;73131;50.820;16.274;2023-10-19T15:53:26;10.50;99.90
36442;DHT22;73131;50.820;16.274;2023-10-19T15:55:52;10.40;99.90
36442;DHT22;73131;50.820;16.274;2023-10-19T15:58:21;10.40;99.90
36442;DHT22;73131;50.820;16.274;2023-10-19T16:00:47;10.40;99.90
36442;DHT22;73131;50.820;16.274;2023-10-19T16:03:13;10.40;99.90